createdAt,value
2023-01-12T00:02:09.906Z,3.37
2023-01-12T00:04:46.511Z,3.30
2023-01-12T00:07:14.905Z,3.24
2023-01-12T00:09:41.574Z,3.27
2023-01-12T00:12:10.327Z,3.32
2023-01-12T00:14:37.849Z,3.22
2023-01-12T00:17:04.530Z,3.20
2023-01-12T00:19:31.919Z,3.24
2023-01-12T00:22:00.452Z,3.20
2023-01-12T00:24:40.869Z,3.21
2023-01-12T00:27:09.200Z,3.24
2023-01-12T00:29:36.526Z,3.31
2023-01-12T00:32:03.967Z,3.36
2023-01-12T00:34:30.830Z,3.28
2023-01-12T00:36:57.673Z,3.18
2023-01-12T00:39:24.260Z,3.08
2023-01-12T00:42:09.645Z,2.98
2023-01-12T00:44:55.033Z,2.88
2023-01-12T00:47:21.640Z,2.80
2023-01-12T00:52:32.855Z,2.75
2023-01-12T00:54:59.845Z,2.81
2023-01-12T00:57:30.395Z,2.75
2023-01-12T00:59:59.355Z,2.65
2023-01-12T01:02:29.910Z,2.63
2023-01-12T01:04:57.207Z,2.63
2023-01-12T01:07:24.037Z,2.60
2023-01-12T01:09:50.920Z,2.57
2023-01-12T01:12:17.821Z,2.44
2023-01-12T01:14:44.521Z,2.36
2023-01-12T01:17:11.093Z,2.33
2023-01-12T01:19:37.727Z,2.31
2023-01-12T01:22:04.272Z,2.44
2023-01-12T01:24:31.816Z,2.47
2023-01-12T01:26:58.463Z,2.62
2023-01-12T01:29:25.089Z,2.71
2023-01-12T01:31:54.244Z,2.69
2023-01-12T01:34:20.801Z,2.70
2023-01-12T01:36:47.382Z,2.72
2023-01-12T01:39:13.917Z,2.71
2023-01-12T01:41:42.796Z,2.71
2023-01-12T01:44:28.994Z,2.69
2023-01-12T01:46:59.157Z,2.66
2023-01-12T01:49:34.922Z,2.58
2023-01-12T01:52:06.771Z,2.48
2023-01-12T01:54:37.781Z,2.44
2023-01-12T01:57:05.171Z,2.39
2023-01-12T01:59:34.639Z,2.29
2023-01-12T02:02:02.737Z,2.24
2023-01-12T02:04:30.315Z,2.26
2023-01-12T02:06:57.752Z,2.37
2023-01-12T02:09:28.001Z,2.29
2023-01-12T02:12:13.768Z,2.29
2023-01-12T02:14:59.672Z,2.17
2023-01-12T02:17:29.354Z,2.07
2023-01-12T02:20:05.533Z,2.09
2023-01-12T02:22:54.648Z,2.11
2023-01-12T02:25:21.252Z,2.13
2023-01-12T02:28:06.245Z,2.14
2023-01-12T02:30:38.963Z,2.04
2023-01-12T02:33:30.362Z,1.94
2023-01-12T02:35:56.956Z,1.89
2023-01-12T02:38:35.540Z,1.88
2023-01-12T02:41:17.180Z,1.84
2023-01-12T02:43:44.195Z,1.69
2023-01-12T02:46:19.436Z,1.62
2023-01-12T02:48:52.214Z,1.53
2023-01-12T02:51:24.762Z,1.46
2023-01-12T02:53:52.997Z,1.37
2023-01-12T02:56:22.372Z,1.46
2023-01-12T02:58:51.771Z,1.69
2023-01-12T03:01:20.615Z,1.79
2023-01-12T03:03:49.012Z,1.76
2023-01-12T03:06:16.540Z,1.63
2023-01-12T03:08:47.858Z,1.72
2023-01-12T03:11:19.132Z,1.73
2023-01-12T03:13:48.100Z,1.74
2023-01-12T03:16:17.615Z,1.70
2023-01-12T03:19:09.345Z,1.70
2023-01-12T03:21:37.805Z,1.73
2023-01-12T03:24:15.606Z,1.67
2023-01-12T03:26:44.118Z,1.70
2023-01-12T03:29:11.086Z,1.66
2023-01-12T03:31:39.437Z,1.60
2023-01-12T03:34:06.119Z,1.60
2023-01-12T03:36:32.871Z,1.70
2023-01-12T03:39:07.546Z,1.77
2023-01-12T03:41:34.104Z,1.77
2023-01-12T03:44:02.773Z,1.77
2023-01-12T03:46:35.766Z,1.71
2023-01-12T03:49:22.644Z,1.59
2023-01-12T03:51:50.797Z,1.52
2023-01-12T03:54:18.749Z,1.52
2023-01-12T03:56:47.061Z,1.58
2023-01-12T03:59:16.030Z,1.46
2023-01-12T04:01:43.608Z,1.37
2023-01-12T04:04:10.257Z,1.39
2023-01-12T04:06:36.906Z,1.36
2023-01-12T04:09:03.464Z,1.39
2023-01-12T04:11:48.548Z,1.41
2023-01-12T04:14:15.198Z,1.42
2023-01-12T04:16:41.799Z,1.47
2023-01-12T04:19:08.434Z,1.53
2023-01-12T04:21:53.591Z,1.76
2023-01-12T04:24:20.218Z,1.77
2023-01-12T04:26:46.958Z,1.94
2023-01-12T04:29:13.895Z,2.09
2023-01-12T04:31:40.503Z,2.20
2023-01-12T04:34:08.534Z,2.20
2023-01-12T04:36:35.122Z,2.11
2023-01-12T04:39:01.753Z,2.04
2023-01-12T04:41:28.307Z,2.11
2023-01-12T04:43:54.905Z,2.09
2023-01-12T04:46:21.460Z,1.98
2023-01-12T04:48:48.101Z,1.99
2023-01-12T04:51:14.732Z,1.80
2023-01-12T04:53:41.411Z,1.68
2023-01-12T04:56:08.452Z,1.65
2023-01-12T04:58:35.251Z,1.78
2023-01-12T05:01:11.958Z,1.81
2023-01-12T05:03:38.921Z,1.87
2023-01-12T05:06:06.070Z,1.88
2023-01-12T05:08:51.515Z,1.67
2023-01-12T05:11:18.241Z,1.57
2023-01-12T05:13:44.889Z,1.60
2023-01-12T05:16:15.709Z,1.59
2023-01-12T05:18:42.766Z,1.65
2023-01-12T05:21:09.357Z,1.59
2023-01-12T05:23:35.952Z,1.54
2023-01-12T05:26:03.748Z,1.48
2023-01-12T05:28:30.790Z,1.40
2023-01-12T05:31:17.723Z,1.33
2023-01-12T05:33:44.567Z,1.32
2023-01-12T05:36:12.241Z,1.33
2023-01-12T05:38:38.838Z,1.18
2023-01-12T05:41:07.352Z,1.24
2023-01-12T05:43:52.185Z,1.16
2023-01-12T05:46:23.249Z,1.13
2023-01-12T05:48:50.620Z,1.19
2023-01-12T05:51:17.555Z,1.18
2023-01-12T05:53:44.490Z,1.40
2023-01-12T05:56:15.656Z,1.59
2023-01-12T05:58:42.404Z,1.67
2023-01-12T06:01:11.546Z,1.80
2023-01-12T06:03:38.194Z,1.87
2023-01-12T06:06:05.141Z,1.83
2023-01-12T06:08:31.975Z,1.89
2023-01-12T06:11:02.537Z,1.94
2023-01-12T06:13:47.744Z,2.00
2023-01-12T06:16:14.542Z,2.03
2023-01-12T06:18:41.290Z,1.93
2023-01-12T06:21:08.788Z,1.88
2023-01-12T06:23:35.996Z,1.77
2023-01-12T06:26:03.944Z,1.72
2023-01-12T06:28:30.511Z,1.70
2023-01-12T06:30:58.262Z,1.63
2023-01-12T06:33:25.081Z,1.72
2023-01-12T06:35:52.966Z,1.64
2023-01-12T06:38:19.740Z,1.70
2023-01-12T06:40:46.445Z,1.85
2023-01-12T06:43:12.974Z,1.94
2023-01-12T06:45:39.549Z,1.96
2023-01-12T06:48:06.350Z,1.95
2023-01-12T06:50:33.446Z,1.80
2023-01-12T06:53:00.442Z,1.78
2023-01-12T06:55:27.202Z,1.85
2023-01-12T06:57:53.840Z,1.80
2023-01-12T07:00:20.671Z,1.76
2023-01-12T07:02:50.992Z,1.67
2023-01-12T07:05:18.237Z,1.67
2023-01-12T07:07:46.379Z,1.72
2023-01-12T07:10:13.468Z,1.82
2023-01-12T07:12:40.176Z,1.89
2023-01-12T07:15:07.486Z,1.77
2023-01-12T07:17:34.089Z,1.69
2023-01-12T07:20:00.722Z,1.69
2023-01-12T07:22:27.310Z,1.74
2023-01-12T07:24:54.237Z,1.77
2023-01-12T07:27:21.896Z,1.80
2023-01-12T07:29:50.107Z,1.69
2023-01-12T07:32:16.805Z,1.47
2023-01-12T07:34:43.361Z,1.31
2023-01-12T07:37:09.981Z,1.28
2023-01-12T07:39:36.611Z,1.34
2023-01-12T07:42:21.665Z,1.35
2023-01-12T07:44:54.773Z,1.38
2023-01-12T07:47:21.758Z,1.37
2023-01-12T07:49:48.355Z,1.46
2023-01-12T07:52:14.987Z,1.66
2023-01-12T07:54:42.548Z,1.67
2023-01-12T07:57:10.289Z,1.72
2023-01-12T07:59:36.882Z,1.66
2023-01-12T08:02:03.785Z,1.65
2023-01-12T08:04:31.720Z,1.65
2023-01-12T08:06:58.686Z,1.59
2023-01-12T08:09:25.425Z,1.58
2023-01-12T08:11:52.254Z,1.53
2023-01-12T08:14:28.540Z,1.65
2023-01-12T08:16:56.684Z,1.72
2023-01-12T08:19:26.064Z,1.68
2023-01-12T08:21:58.643Z,1.70
2023-01-12T08:24:28.165Z,1.70
2023-01-12T08:26:56.593Z,1.63
2023-01-12T08:29:31.982Z,1.61
2023-01-12T08:32:02.561Z,1.61
2023-01-12T08:34:31.517Z,1.52
2023-01-12T08:37:01.371Z,1.64
2023-01-12T08:39:29.830Z,1.65
2023-01-12T08:41:56.535Z,1.86
2023-01-12T08:44:23.314Z,1.84
2023-01-12T08:46:52.159Z,1.79
2023-01-12T08:49:21.872Z,1.65
2023-01-12T08:51:49.523Z,1.66
2023-01-12T08:54:17.199Z,1.69
2023-01-12T08:56:43.843Z,1.85
2023-01-12T08:59:10.492Z,1.88
2023-01-12T09:01:37.350Z,1.81
2023-01-12T09:04:04.184Z,1.76
2023-01-12T09:09:14.847Z,1.72
2023-01-12T09:11:42.468Z,1.71
2023-01-12T09:14:09.396Z,1.77
2023-01-12T09:16:36.388Z,2.16
2023-01-12T09:19:03.061Z,2.86
2023-01-12T09:21:30.565Z,3.56
2023-01-12T09:23:57.561Z,4.05
2023-01-12T09:26:26.892Z,4.30
2023-01-12T09:28:53.812Z,4.48
2023-01-12T09:31:22.376Z,4.95
2023-01-12T09:33:49.559Z,5.22
2023-01-12T09:36:17.740Z,5.39
2023-01-12T09:38:45.437Z,5.43
2023-01-12T09:41:41.405Z,4.39
2023-01-12T09:44:35.893Z,3.81
2023-01-12T09:47:08.785Z,3.52
2023-01-12T09:49:38.774Z,3.38
2023-01-12T09:52:11.472Z,3.29
2023-01-12T09:54:38.208Z,3.22
2023-01-12T09:57:29.258Z,3.22
2023-01-12T10:00:04.299Z,3.27
2023-01-12T10:02:42.248Z,3.31
2023-01-12T10:05:16.143Z,3.23
2023-01-12T10:07:43.346Z,3.26
2023-01-12T10:10:14.150Z,3.54
2023-01-12T10:12:43.288Z,3.69
2023-01-12T10:15:19.516Z,4.47
2023-01-12T10:17:58.534Z,4.82
2023-01-12T10:23:24.760Z,5.60
2023-01-12T10:26:02.992Z,5.80
2023-01-12T10:28:34.380Z,6.11
2023-01-12T10:31:01.134Z,6.18
2023-01-12T10:33:29.701Z,6.14
2023-01-12T10:35:58.758Z,5.72
2023-01-12T10:38:51.785Z,4.99
2023-01-12T10:41:22.484Z,5.42
2023-01-12T10:43:58.332Z,5.92
2023-01-12T10:46:31.535Z,5.47
2023-01-12T10:49:16.876Z,5.03
2023-01-12T10:51:54.099Z,4.59
2023-01-12T10:54:29.265Z,4.50
2023-01-12T10:57:01.608Z,4.43
2023-01-12T10:59:29.833Z,4.40
2023-01-12T11:02:05.756Z,4.39
2023-01-12T11:04:41.704Z,4.34
2023-01-12T11:07:14.144Z,4.33
2023-01-12T11:09:42.132Z,4.33
2023-01-12T11:12:20.212Z,4.35
2023-01-12T11:15:16.897Z,4.34
2023-01-12T11:17:52.809Z,4.26
2023-01-12T11:20:34.703Z,4.15
2023-01-12T11:23:02.939Z,4.11
2023-01-12T11:25:33.244Z,4.05
2023-01-12T11:28:05.933Z,4.06
2023-01-12T11:30:38.112Z,4.04
2023-01-12T11:33:26.286Z,4.08
2023-01-12T11:36:10.191Z,4.11
2023-01-12T11:38:41.089Z,4.14
2023-01-12T11:41:10.473Z,4.11
2023-01-12T11:43:55.964Z,4.10
2023-01-12T11:46:36.009Z,4.16
2023-01-12T11:49:02.624Z,4.16
2023-01-12T11:51:29.594Z,4.22
2023-01-12T11:53:56.757Z,4.26
2023-01-12T11:56:23.277Z,4.29
2023-01-12T11:59:02.155Z,4.32
2023-01-12T12:01:28.814Z,4.34
2023-01-12T12:04:04.211Z,4.42
2023-01-12T12:06:49.760Z,4.49
2023-01-12T12:09:16.534Z,4.57
2023-01-12T12:11:47.395Z,4.70
2023-01-12T12:14:14.036Z,4.83
2023-01-12T12:17:00.491Z,4.89
2023-01-12T12:19:30.455Z,4.95
2023-01-12T12:22:09.254Z,5.05
2023-01-12T12:24:54.871Z,5.17
2023-01-12T12:27:24.489Z,5.20
2023-01-12T12:30:03.439Z,5.18
2023-01-12T12:32:48.876Z,5.17
2023-01-12T12:35:29.203Z,5.11
2023-01-12T12:37:55.773Z,5.13
2023-01-12T12:40:25.305Z,5.13
2023-01-12T12:43:19.476Z,5.13
2023-01-12T12:45:58.225Z,5.09
2023-01-12T12:48:32.995Z,5.11
2023-01-12T12:51:07.957Z,5.16
2023-01-12T12:53:35.984Z,5.18
2023-01-12T12:56:05.335Z,5.23
2023-01-12T12:58:40.181Z,5.22
2023-01-12T13:01:25.394Z,5.22
2023-01-12T13:03:53.672Z,5.23
2023-01-12T13:06:24.803Z,5.23
2023-01-12T13:08:53.378Z,5.25
2023-01-12T13:11:20.356Z,5.24
2023-01-12T13:14:06.446Z,5.27
2023-01-12T13:16:33.046Z,5.27
2023-01-12T13:18:59.633Z,5.35
2023-01-12T13:21:26.267Z,5.41
2023-01-12T13:24:14.190Z,5.45
2023-01-12T13:26:41.787Z,5.49
2023-01-12T13:29:23.747Z,5.48
2023-01-12T13:31:53.795Z,5.50
2023-01-12T13:34:41.897Z,5.59
2023-01-12T13:37:27.340Z,5.61
2023-01-12T13:40:03.138Z,5.62
2023-01-12T13:42:48.333Z,5.60
2023-01-12T13:45:19.151Z,5.62
2023-01-12T13:47:47.347Z,5.76
2023-01-12T13:50:16.748Z,5.93
2023-01-12T13:52:44.155Z,6.03
2023-01-12T13:55:21.791Z,6.06
2023-01-12T13:57:57.863Z,6.02
2023-01-12T14:00:24.964Z,6.08
2023-01-12T14:02:52.416Z,6.05
2023-01-12T14:05:41.503Z,6.05
2023-01-12T14:08:17.316Z,6.04
2023-01-12T14:10:53.986Z,5.98
2023-01-12T14:13:39.318Z,5.91
2023-01-12T14:16:30.095Z,5.75
2023-01-12T14:18:56.757Z,5.68
2023-01-12T14:21:25.257Z,5.61
2023-01-12T14:23:52.191Z,5.56
2023-01-12T14:26:23.862Z,5.48
2023-01-12T14:28:51.805Z,5.45
2023-01-12T14:31:24.154Z,5.35
2023-01-12T14:33:52.292Z,5.23
2023-01-12T14:36:24.423Z,5.22
2023-01-12T14:38:51.532Z,5.21
2023-01-12T14:41:42.912Z,5.17
2023-01-12T14:44:37.147Z,5.14
2023-01-12T14:47:03.828Z,5.10
2023-01-12T14:49:32.392Z,5.04
2023-01-12T14:51:59.749Z,5.00
2023-01-12T14:54:26.322Z,5.04
2023-01-12T14:56:56.774Z,5.10
2023-01-12T14:59:25.122Z,5.03
2023-01-12T15:01:53.075Z,5.01
2023-01-12T15:04:22.443Z,4.97
2023-01-12T15:06:59.971Z,4.98
2023-01-12T15:09:29.231Z,4.96
2023-01-12T15:11:55.924Z,4.90
2023-01-12T15:14:25.113Z,4.89
2023-01-12T15:17:14.508Z,4.85
2023-01-12T15:19:59.879Z,4.77
2023-01-12T15:22:46.059Z,4.75
2023-01-12T15:25:32.543Z,4.73
2023-01-12T15:27:59.149Z,4.68
2023-01-12T15:30:26.472Z,4.67
2023-01-12T15:32:53.849Z,4.66
2023-01-12T15:35:23.485Z,4.67
2023-01-12T15:37:51.419Z,4.63
2023-01-12T15:40:18.205Z,4.61
2023-01-12T15:42:44.980Z,4.60
2023-01-12T15:45:22.528Z,4.55
2023-01-12T15:47:49.230Z,4.53
2023-01-12T15:50:15.975Z,4.53
2023-01-12T15:52:42.631Z,4.50
2023-01-12T15:55:14.245Z,4.50
2023-01-12T15:57:40.865Z,4.55
2023-01-12T16:00:11.011Z,4.59
2023-01-12T16:02:38.229Z,4.61
2023-01-12T16:05:05.930Z,4.64
2023-01-12T16:07:32.680Z,4.66
2023-01-12T16:09:59.331Z,4.69
2023-01-12T16:12:26.216Z,4.69
2023-01-12T16:39:55.557Z,4.94
2023-01-12T16:42:38.529Z,4.97
2023-01-12T16:45:06.217Z,4.96
2023-01-12T16:47:32.979Z,4.95
2023-01-12T16:50:00.148Z,4.98
2023-01-12T16:52:26.987Z,4.99
2023-01-12T16:54:54.546Z,5.02
2023-01-12T16:57:21.475Z,5.03
2023-01-12T16:59:49.714Z,5.03
2023-01-12T17:02:17.806Z,5.05
2023-01-12T17:04:45.784Z,5.06
2023-01-12T17:07:16.311Z,5.08
2023-01-12T17:09:43.779Z,5.08
2023-01-12T17:15:08.811Z,5.10
2023-01-12T17:17:36.101Z,5.11
2023-01-12T17:20:03.608Z,5.13
2023-01-12T17:22:31.981Z,5.15
2023-01-12T17:24:58.614Z,5.16
2023-01-12T17:27:25.697Z,5.20
2023-01-12T17:29:52.276Z,5.23
2023-01-12T17:32:19.972Z,5.23
2023-01-12T17:34:48.077Z,5.24
2023-01-12T17:37:14.798Z,5.23
2023-01-12T17:39:43.188Z,5.24
2023-01-12T17:42:29.570Z,5.27
2023-01-12T17:44:56.237Z,5.25
2023-01-12T17:47:24.089Z,5.25
2023-01-12T17:49:50.819Z,5.24
2023-01-12T17:52:17.449Z,5.24
2023-01-12T17:54:44.394Z,5.22
2023-01-12T17:57:11.092Z,5.21
2023-01-12T17:59:37.713Z,5.24
2023-01-12T18:02:04.519Z,5.28
2023-01-12T18:04:31.524Z,5.29
2023-01-12T18:06:58.124Z,5.28
2023-01-12T18:09:25.631Z,5.29
2023-01-12T18:14:32.724Z,5.29
2023-01-12T18:16:59.378Z,5.26
2023-01-12T18:19:25.990Z,5.27
2023-01-12T18:21:52.536Z,5.24
2023-01-12T18:24:19.197Z,5.24
2023-01-12T18:26:45.958Z,5.24
2023-01-12T18:29:12.688Z,5.22
2023-01-12T18:31:42.445Z,5.19
2023-01-12T18:34:10.262Z,5.21
2023-01-12T18:36:38.086Z,5.17
2023-01-12T18:39:07.720Z,5.12
2023-01-12T18:42:13.937Z,5.16
2023-01-12T18:44:40.570Z,5.09
2023-01-12T18:47:25.701Z,5.05
2023-01-12T18:49:57.537Z,5.03
2023-01-12T18:52:42.827Z,5.05
2023-01-12T18:55:09.471Z,5.04
2023-01-12T18:57:38.628Z,5.03
2023-01-12T19:00:25.953Z,5.03
2023-01-12T19:02:52.760Z,5.02
2023-01-12T19:05:27.047Z,5.03
2023-01-12T19:07:59.381Z,5.04
2023-01-12T19:10:26.403Z,5.06
2023-01-12T19:13:12.901Z,5.05
2023-01-12T19:15:58.710Z,5.05
2023-01-12T19:18:25.385Z,5.09
2023-01-12T19:20:51.951Z,5.06
2023-01-12T19:23:37.435Z,5.07
2023-01-12T19:26:22.736Z,5.03
2023-01-12T19:28:49.404Z,4.99
2023-01-12T19:31:16.018Z,4.96
2023-01-12T19:33:42.842Z,4.95
2023-01-12T19:36:10.443Z,4.90
2023-01-12T19:38:37.714Z,4.84
2023-01-12T19:41:14.355Z,4.85
2023-01-12T19:43:45.179Z,4.80
2023-01-12T19:46:13.048Z,4.78
2023-01-12T19:48:40.818Z,4.79
2023-01-12T19:51:21.627Z,4.76
2023-01-12T19:53:48.294Z,4.74
2023-01-12T19:56:15.052Z,4.73
2023-01-12T19:58:41.990Z,4.74
2023-01-12T20:01:08.657Z,4.71
2023-01-12T20:03:39.890Z,4.67
2023-01-12T20:06:07.032Z,4.63
2023-01-12T20:08:35.495Z,4.64
2023-01-12T20:11:04.914Z,4.63
2023-01-12T20:13:32.784Z,4.64
2023-01-12T20:15:59.720Z,4.65
2023-01-12T20:18:27.515Z,4.66
2023-01-12T20:23:49.298Z,4.70
2023-01-12T20:26:16.163Z,4.72
2023-01-12T20:28:43.807Z,4.70
2023-01-12T20:31:12.963Z,4.74
2023-01-12T20:33:40.084Z,4.75
2023-01-12T20:36:14.458Z,4.77
2023-01-12T20:38:41.531Z,4.76
2023-01-12T20:41:08.796Z,4.76
2023-01-12T20:43:35.856Z,4.77
2023-01-12T20:46:02.666Z,4.76
2023-01-12T20:48:29.438Z,4.79
2023-01-12T20:50:56.024Z,4.82
2023-01-12T20:53:24.437Z,4.83
2023-01-12T20:55:51.593Z,4.83
2023-01-12T20:58:18.355Z,4.84
2023-01-12T21:00:45.602Z,4.87
2023-01-12T21:03:12.343Z,4.90
2023-01-12T21:05:43.910Z,4.90
2023-01-12T21:08:11.072Z,4.91
2023-01-12T21:10:38.573Z,4.94
2023-01-12T21:13:05.405Z,4.94
2023-01-12T21:15:31.959Z,4.96
2023-01-12T21:17:58.650Z,4.95
2023-01-12T21:20:25.267Z,4.98
2023-01-12T21:22:51.949Z,4.97
2023-01-12T21:25:18.570Z,4.97
2023-01-12T21:27:45.124Z,4.98
2023-01-12T21:30:12.452Z,4.98
2023-01-12T21:32:39.055Z,5.00
2023-01-12T21:35:05.933Z,5.00
2023-01-12T21:37:32.478Z,4.99
2023-01-12T21:39:59.109Z,4.99
2023-01-12T21:42:44.386Z,5.00
2023-01-12T21:45:11.040Z,5.02
2023-01-12T21:47:40.817Z,4.99
2023-01-12T21:50:08.519Z,5.02
2023-01-12T21:52:35.208Z,4.99
2023-01-12T21:55:01.808Z,4.99
2023-01-12T21:57:28.421Z,4.97
2023-01-12T21:59:55.064Z,4.98
2023-01-12T22:02:21.640Z,4.97
2023-01-12T22:04:48.356Z,4.96
2023-01-12T22:07:14.974Z,4.95
2023-01-12T22:09:44.583Z,4.93
2023-01-12T22:12:11.211Z,4.91
2023-01-12T22:14:37.825Z,4.92
2023-01-12T22:17:04.723Z,4.89
2023-01-12T22:22:13.724Z,4.86
2023-01-12T22:24:40.225Z,4.84
2023-01-12T22:27:06.800Z,4.82
2023-01-12T22:29:33.359Z,4.83
2023-01-12T22:32:00.031Z,4.81
2023-01-12T22:34:27.946Z,4.78
2023-01-12T22:36:55.869Z,4.78
2023-01-12T22:39:22.409Z,4.77
2023-01-12T22:41:50.738Z,4.76
2023-01-12T22:44:17.465Z,4.75
2023-01-12T22:46:44.162Z,4.75
2023-01-12T22:49:10.848Z,4.77
2023-01-12T22:51:38.081Z,4.76
2023-01-12T22:54:04.634Z,4.83
2023-01-12T22:56:31.342Z,4.77
2023-01-12T22:58:57.956Z,4.73
2023-01-12T23:01:26.593Z,4.78
2023-01-12T23:03:54.584Z,4.75
2023-01-12T23:06:24.186Z,4.67
2023-01-12T23:08:51.223Z,4.66
2023-01-12T23:11:19.187Z,4.63
2023-01-12T23:13:46.481Z,4.64
2023-01-12T23:16:14.336Z,4.58
2023-01-12T23:18:41.858Z,4.61
2023-01-12T23:21:11.340Z,4.60
2023-01-12T23:23:38.483Z,4.62
2023-01-12T23:26:07.026Z,4.61
2023-01-12T23:28:36.504Z,4.61
2023-01-12T23:31:07.660Z,4.58
2023-01-12T23:33:35.541Z,4.57
2023-01-12T23:36:06.652Z,4.55
2023-01-12T23:38:33.481Z,4.52
2023-01-12T23:41:02.829Z,4.50
2023-01-12T23:43:33.018Z,4.52
2023-01-12T23:45:59.638Z,4.48
2023-01-12T23:48:27.446Z,4.44
2023-01-12T23:50:57.157Z,4.41
2023-01-12T23:53:24.692Z,4.40
2023-01-12T23:55:51.672Z,4.40
2023-01-12T23:58:18.319Z,4.37
